메인 페이지
METAR-TAF:

METAR-TAF

공항 :

빌뉴스, 리투아니아

위도: 54-38N, 경도: 025-06E, 고도: 162m

현재 날씨관측

예보는 27분 전, 12:20시(UTC)에 발표되었습니다.
북서6kt풍과 북북동풍을 오가는
온도 21°C
습도 83%
기압 1012 hPa
시정 10km 이상
고도 5800ft 상공 구름 많음, 적란운.
시계 내 뇌우,

METAR: EYVI 241220Z 31006KT 270V020 9999 VCTS BKN058CB 21/18 Q1012 NOSIG

시각: 15:47 (12:47 UTC)

예보

예보는 1 시간 47분 전, 11:00시(UTC)에 발표되었습니다.
예보 대상 시간: 24일 12시부터 25일 12시까지 (UTC)
여러 방향의 바람 5kt
시정: 7000m
고도 1000ft 상공 구름 보통
고도 2000ft 상공 구름 많음
일시적
24일 12시부터 24일 16시까지 (UTC)
여러 방향의 바람 15kt, 순간 최대 풍속 25kt
시정: 3000m
고도 500ft 상공 구름 많음
고도 1500ft 상공 구름 많음, 적란운.
뇌우, 비
일시적
24일 16시부터 24일 20시까지 (UTC)
고도 500ft 상공 구름 보통
고도 1000ft 상공 구름 많음, 적란운.
확률 40% :
일시적
24일 16시부터 24일 20시까지 (UTC)
여러 방향의 바람 15kt
시정: 3000m
뇌우, 비
일시적
24일 20시부터 25일 04시까지 (UTC)
시정: 1500m
고도 300ft 상공 구름 많음
고도 4500ft 상공 구름 많음, 적란운.
박무
일시적
25일 04시부터 25일 09시까지 (UTC)
고도 1500ft 상공 구름 보통
일시적
25일 09시부터 25일 12시까지 (UTC)
여러 방향의 바람 15kt
고도 3000ft 상공 구름 많음, 적란운.

TAF: EYVI 241100Z 2412/2512 VRB05KT 7000 SCT010 BKN020 TEMPO 2412/2416 VRB15G25KT 3000 TSRA BKN005 BKN015CB TEMPO 2416/2420 SCT005 BKN010CB PROB40 TEMPO 2416/2420 VRB15KT 3000 TSRA TEMPO 2420/2504 1500 BR BKN003 BKN045CB TEMPO 2504/2509 SCT015 TEMPO 2509/2512 VRB15KT BKN030CB

4,000개 이상의 공항 관측 자료 및 예보 (METAR 및 TAF 보고).

지도상에서 검색 가능한 기상관측소가 노란 점과 빨간 점으로 표시되어 있습니다.

기상관측소 명을 보려면 표시 위로 마우스를 이동하세요.

날씨 관측과 예보를 보려면 클릭하세요.

지도 변경 : 확대하려면 엑스 표시가 있는 녹색 버튼, 축소하려면 빼기 표시가 있는 녹색 버튼, 다음 페이지의 지도를 보려면 녹색 화살표를 클릭하세요.


METAR-TAF: